createdAt,value
2023-04-16T00:01:46.354Z,5.27
2023-04-16T00:04:13.909Z,3.87
2023-04-16T00:06:41.486Z,4.33
2023-04-16T00:09:09.060Z,4.30
2023-04-16T00:11:36.577Z,4.20
2023-04-16T00:14:04.038Z,4.20
2023-04-16T00:16:31.489Z,4.13
2023-04-16T00:18:58.796Z,4.00
2023-04-16T00:21:26.972Z,4.27
2023-04-16T00:23:54.419Z,4.40
2023-04-16T00:26:21.750Z,4.40
2023-04-16T00:28:49.215Z,4.60
2023-04-16T00:31:16.737Z,3.73
2023-04-16T00:33:44.281Z,4.27
2023-04-16T00:36:11.743Z,3.50
2023-04-16T00:38:39.141Z,4.23
2023-04-16T00:41:06.595Z,5.63
2023-04-16T00:43:34.112Z,4.77
2023-04-16T00:46:01.565Z,4.63
2023-04-16T00:48:32.180Z,4.17
2023-04-16T00:51:01.978Z,3.53
2023-04-16T00:53:29.304Z,3.20
2023-04-16T00:55:57.585Z,3.77
2023-04-16T00:58:25.731Z,3.60
2023-04-16T01:00:53.129Z,4.00
2023-04-16T01:03:20.958Z,3.60
2023-04-16T01:05:49.998Z,4.20
2023-04-16T01:08:21.748Z,3.53
2023-04-16T01:10:49.195Z,3.50
2023-04-16T01:13:16.552Z,4.10
2023-04-16T01:15:44.065Z,3.50
2023-04-16T01:18:18.219Z,3.60
2023-04-16T01:20:46.164Z,4.60
2023-04-16T01:23:13.816Z,4.57
2023-04-16T01:25:41.429Z,3.97
2023-04-16T01:28:08.945Z,4.80
2023-04-16T01:30:36.423Z,5.63
2023-04-16T01:33:03.850Z,4.87
2023-04-16T01:35:31.331Z,4.10
2023-04-16T01:37:58.537Z,4.83
2023-04-16T01:40:26.056Z,5.13
2023-04-16T01:42:53.423Z,5.13
2023-04-16T01:45:21.353Z,4.17
2023-04-16T01:47:52.782Z,5.70
2023-04-16T01:50:20.758Z,6.30
2023-04-16T01:52:48.142Z,6.27
2023-04-16T01:55:16.226Z,7.27
2023-04-16T01:57:43.514Z,6.17
2023-04-16T02:00:11.320Z,6.00
2023-04-16T02:02:38.812Z,5.87
2023-04-16T02:05:06.389Z,4.90
2023-04-16T02:07:33.640Z,3.83
2023-04-16T02:10:01.010Z,4.80
2023-04-16T02:12:28.546Z,4.40
2023-04-16T02:14:56.080Z,4.90
2023-04-16T02:17:23.494Z,4.17
2023-04-16T02:19:50.888Z,4.40
2023-04-16T02:22:18.303Z,4.97
2023-04-16T02:24:45.640Z,4.20
2023-04-16T02:27:13.123Z,4.63
2023-04-16T02:29:40.830Z,5.17
2023-04-16T02:32:08.520Z,4.53
2023-04-16T02:34:36.138Z,5.10
2023-04-16T02:37:03.507Z,3.67
2023-04-16T02:39:30.935Z,3.87
2023-04-16T02:41:59.665Z,4.93
2023-04-16T02:44:27.105Z,4.43
2023-04-16T02:46:54.613Z,4.30
2023-04-16T02:49:21.986Z,4.20
2023-04-16T02:51:49.246Z,4.10
2023-04-16T02:54:16.653Z,4.13
2023-04-16T02:56:44.076Z,4.27
2023-04-16T02:59:11.601Z,4.43
2023-04-16T03:01:39.174Z,4.10
2023-04-16T03:04:06.610Z,4.30
2023-04-16T03:06:33.910Z,4.07
2023-04-16T03:09:01.195Z,4.40
2023-04-16T03:11:28.620Z,4.50
2023-04-16T03:13:57.054Z,4.37
2023-04-16T03:16:24.538Z,4.17
2023-04-16T03:18:51.999Z,5.20
2023-04-16T03:21:19.721Z,4.97
2023-04-16T03:23:47.295Z,4.97
2023-04-16T03:26:14.676Z,4.40
2023-04-16T03:28:41.904Z,4.60
2023-04-16T03:31:09.359Z,5.00
2023-04-16T03:33:36.917Z,4.37
2023-04-16T03:36:04.464Z,4.33
2023-04-16T03:38:31.795Z,4.60
2023-04-16T03:40:59.182Z,4.00
2023-04-16T03:43:26.624Z,3.47
2023-04-16T03:45:53.821Z,3.53
2023-04-16T03:48:21.036Z,4.97
2023-04-16T03:50:48.832Z,5.97
2023-04-16T03:53:16.511Z,8.27
2023-04-16T03:55:43.880Z,6.70
2023-04-16T03:58:11.305Z,7.07
2023-04-16T04:00:41.459Z,4.70
2023-04-16T04:03:08.846Z,5.77
2023-04-16T04:05:40.690Z,5.63
2023-04-16T04:08:08.477Z,5.37
2023-04-16T04:10:36.315Z,5.37
2023-04-16T04:13:04.128Z,6.70
2023-04-16T04:15:31.681Z,7.87
2023-04-16T04:17:59.603Z,6.83
2023-04-16T04:20:27.109Z,7.60
2023-04-16T04:22:54.465Z,6.13
2023-04-16T04:25:21.937Z,5.33
2023-04-16T04:27:49.754Z,4.73
2023-04-16T04:30:17.149Z,5.27
2023-04-16T04:32:44.591Z,6.20
2023-04-16T04:35:12.145Z,5.13
2023-04-16T04:37:39.620Z,5.93
2023-04-16T04:40:07.698Z,8.43
2023-04-16T04:42:35.065Z,5.90
2023-04-16T04:45:02.510Z,5.67
2023-04-16T04:47:29.714Z,11.30
2023-04-16T04:49:57.179Z,7.87
2023-04-16T04:52:24.677Z,6.23
2023-04-16T04:54:52.688Z,8.73
2023-04-16T04:57:20.162Z,6.10
2023-04-16T04:59:47.557Z,5.67
2023-04-16T05:02:15.078Z,6.60
2023-04-16T05:04:42.662Z,7.00
2023-04-16T05:07:11.353Z,4.80
2023-04-16T05:09:38.521Z,5.20
2023-04-16T05:12:06.060Z,5.43
2023-04-16T05:14:33.763Z,5.53
2023-04-16T05:17:01.202Z,7.83
2023-04-16T05:19:28.868Z,7.17
2023-04-16T05:21:56.147Z,7.70
2023-04-16T05:24:23.558Z,8.27
2023-04-16T05:26:51.046Z,5.80
2023-04-16T05:29:18.513Z,5.70
2023-04-16T05:31:46.230Z,8.37
2023-04-16T05:34:13.826Z,6.47
2023-04-16T05:36:41.285Z,4.37
2023-04-16T05:39:08.753Z,4.40
2023-04-16T05:41:36.210Z,5.03
2023-04-16T05:44:03.584Z,6.97
2023-04-16T05:46:31.531Z,4.90
2023-04-16T05:48:58.842Z,5.40
2023-04-16T05:51:27.618Z,6.50
2023-04-16T05:53:55.110Z,6.13
2023-04-16T05:56:23.702Z,10.10
2023-04-16T05:58:50.968Z,8.90
2023-04-16T06:01:18.846Z,7.10
2023-04-16T06:03:46.331Z,11.13
2023-04-16T06:06:13.903Z,7.33
2023-04-16T06:08:41.393Z,7.20
2023-04-16T06:11:08.847Z,7.73
2023-04-16T06:13:37.060Z,9.27
2023-04-16T06:16:04.679Z,7.30
2023-04-16T06:18:31.949Z,7.07
2023-04-16T06:20:59.698Z,6.73
2023-04-16T06:23:27.250Z,7.20
2023-04-16T06:25:54.797Z,8.37
2023-04-16T06:28:22.351Z,8.37
2023-04-16T06:30:49.799Z,9.17
2023-04-16T06:33:17.316Z,10.37
2023-04-16T06:35:44.596Z,10.17
2023-04-16T06:38:11.977Z,9.47
2023-04-16T06:40:39.397Z,9.90
2023-04-16T06:43:07.013Z,9.80
2023-04-16T06:45:35.011Z,8.77
2023-04-16T06:48:03.793Z,10.30
2023-04-16T06:50:31.356Z,9.70
2023-04-16T06:52:58.833Z,9.60
2023-04-16T06:55:26.223Z,9.77
2023-04-16T06:57:53.776Z,8.80
2023-04-16T07:00:21.428Z,9.23
2023-04-16T07:02:49.055Z,10.13
2023-04-16T07:05:16.624Z,9.83
2023-04-16T07:07:43.969Z,11.53
2023-04-16T07:10:11.581Z,8.77
2023-04-16T07:12:38.922Z,7.67
2023-04-16T07:15:06.917Z,9.50
2023-04-16T07:17:34.472Z,8.87
2023-04-16T07:20:01.974Z,9.87
2023-04-16T07:22:29.103Z,10.03
2023-04-16T07:24:56.914Z,17.40
2023-04-16T07:27:24.196Z,12.30
2023-04-16T07:29:51.735Z,10.90
2023-04-16T07:32:19.009Z,8.63
2023-04-16T07:34:46.414Z,8.17
2023-04-16T07:37:13.818Z,10.07
2023-04-16T07:39:41.262Z,8.50
2023-04-16T07:42:08.661Z,9.27
2023-04-16T07:44:36.248Z,9.13
2023-04-16T07:47:05.377Z,9.00
2023-04-16T07:49:33.107Z,13.40
2023-04-16T07:52:00.932Z,9.37
2023-04-16T07:54:29.154Z,9.70
2023-04-16T07:56:57.100Z,8.57
2023-04-16T07:59:24.641Z,11.90
2023-04-16T08:01:53.423Z,9.40
2023-04-16T08:04:25.743Z,12.10
2023-04-16T08:06:53.992Z,13.60
2023-04-16T08:09:22.698Z,9.70
2023-04-16T08:11:50.306Z,9.97
2023-04-16T08:14:18.203Z,10.30
2023-04-16T08:16:45.802Z,13.37
2023-04-16T08:19:13.338Z,14.40
2023-04-16T08:21:41.043Z,18.80
2023-04-16T08:24:08.496Z,15.20
2023-04-16T08:26:36.008Z,11.20
2023-04-16T08:29:03.445Z,12.77
2023-04-16T08:31:31.005Z,12.63
2023-04-16T08:33:58.481Z,9.13
2023-04-16T08:36:25.997Z,10.80
2023-04-16T08:38:53.586Z,10.87
2023-04-16T08:41:21.558Z,11.77
2023-04-16T08:43:49.086Z,12.03
2023-04-16T08:46:17.798Z,12.10
2023-04-16T08:48:45.253Z,10.73
2023-04-16T08:51:12.732Z,11.33
2023-04-16T08:53:53.638Z,11.07
2023-04-16T08:56:22.310Z,10.53
2023-04-16T08:58:50.557Z,15.37
2023-04-16T09:01:18.901Z,10.37
2023-04-16T09:03:48.336Z,11.57
2023-04-16T09:06:16.741Z,10.40
2023-04-16T09:08:47.200Z,10.73
2023-04-16T09:11:14.924Z,13.10
2023-04-16T09:13:42.351Z,11.23
2023-04-16T09:16:09.610Z,10.20
2023-04-16T09:18:36.944Z,11.40
2023-04-16T09:21:05.070Z,11.30
2023-04-16T09:23:32.492Z,10.33
2023-04-16T09:26:00.392Z,10.83
2023-04-16T09:28:45.481Z,14.20
2023-04-16T09:31:18.291Z,9.73
2023-04-16T09:34:05.737Z,11.43
2023-04-16T09:36:33.684Z,9.40
2023-04-16T09:39:01.311Z,11.13
2023-04-16T09:41:33.065Z,11.27
2023-04-16T09:44:01.589Z,10.20
2023-04-16T09:46:32.681Z,10.50
2023-04-16T09:49:06.390Z,9.43
2023-04-16T09:51:46.963Z,10.43
2023-04-16T09:54:14.749Z,9.73
2023-04-16T09:56:46.257Z,9.60
2023-04-16T09:59:23.728Z,11.47
2023-04-16T10:01:57.337Z,12.57
2023-04-16T10:04:48.357Z,11.20
2023-04-16T10:07:15.879Z,8.90
2023-04-16T10:09:43.300Z,11.27
2023-04-16T10:12:10.972Z,9.93
2023-04-16T10:14:38.548Z,9.10
2023-04-16T10:17:06.773Z,10.37
2023-04-16T10:19:34.406Z,10.07
2023-04-16T10:22:02.558Z,9.70
2023-04-16T10:24:30.791Z,10.10
2023-04-16T10:26:58.330Z,8.63
2023-04-16T10:29:27.156Z,8.57
2023-04-16T10:31:55.471Z,8.50
2023-04-16T10:34:23.247Z,8.57
2023-04-16T10:36:52.982Z,9.63
2023-04-16T10:39:23.599Z,7.90
2023-04-16T10:42:10.337Z,7.57
2023-04-16T10:44:37.768Z,8.03
2023-04-16T10:47:12.227Z,8.30
2023-04-16T10:49:40.113Z,8.00
2023-04-16T10:52:12.645Z,7.80
2023-04-16T10:54:41.063Z,8.30
2023-04-16T10:57:10.036Z,8.93
2023-04-16T10:59:38.786Z,10.43
2023-04-16T11:02:13.361Z,10.60
2023-04-16T11:04:43.044Z,14.20
2023-04-16T11:07:19.876Z,8.50
2023-04-16T11:09:48.300Z,7.17
2023-04-16T11:12:17.288Z,6.63
2023-04-16T11:14:49.604Z,9.17
2023-04-16T11:17:16.992Z,6.30
2023-04-16T11:19:44.454Z,6.17
2023-04-16T11:22:17.537Z,6.90
2023-04-16T11:24:46.391Z,7.03
2023-04-16T11:27:15.540Z,6.77
2023-04-16T11:29:45.051Z,8.47
2023-04-16T11:32:22.176Z,6.73
2023-04-16T11:34:49.516Z,6.67
2023-04-16T11:37:19.816Z,6.67
2023-04-16T11:39:51.435Z,6.80
2023-04-16T11:42:24.138Z,8.17
2023-04-16T11:44:58.707Z,7.07
2023-04-16T11:47:26.679Z,9.73
2023-04-16T11:49:54.092Z,7.83
2023-04-16T11:52:29.601Z,9.87
2023-04-16T11:54:57.759Z,7.63
2023-04-16T11:57:27.942Z,8.17
2023-04-16T12:00:01.337Z,10.63
2023-04-16T12:02:44.362Z,8.83
2023-04-16T12:05:31.183Z,7.90
2023-04-16T12:07:59.099Z,7.07
2023-04-16T12:10:27.447Z,13.93
2023-04-16T12:12:54.820Z,8.30
2023-04-16T12:15:22.484Z,13.23
2023-04-16T12:17:50.651Z,7.93
2023-04-16T12:20:17.910Z,7.67
2023-04-16T12:22:47.288Z,8.97
2023-04-16T12:25:18.390Z,6.77
2023-04-16T12:27:56.006Z,7.03
2023-04-16T12:30:23.906Z,9.93
2023-04-16T12:32:52.827Z,6.50
2023-04-16T12:35:33.834Z,8.30
2023-04-16T12:38:01.718Z,7.03
2023-04-16T12:40:29.137Z,7.53
2023-04-16T12:42:56.444Z,7.87
2023-04-16T12:45:24.556Z,5.03
2023-04-16T12:47:51.949Z,4.83
2023-04-16T12:50:19.201Z,5.37
2023-04-16T12:52:46.727Z,5.20
2023-04-16T12:55:14.464Z,5.43
2023-04-16T12:57:41.771Z,5.53
2023-04-16T13:00:12.948Z,7.43
2023-04-16T13:02:40.368Z,8.50
2023-04-16T13:05:08.761Z,4.87
2023-04-16T13:07:35.990Z,4.87
2023-04-16T13:10:03.616Z,7.27
2023-04-16T13:12:31.223Z,5.10
2023-04-16T13:14:58.727Z,4.43
2023-04-16T13:17:26.569Z,9.53
2023-04-16T13:19:54.068Z,4.50
2023-04-16T13:22:21.472Z,3.90
2023-04-16T13:24:48.839Z,4.97
2023-04-16T13:27:17.239Z,5.87
2023-04-16T13:29:45.248Z,4.53
2023-04-16T13:32:16.636Z,6.63
2023-04-16T13:34:44.032Z,8.10
2023-04-16T13:37:11.430Z,4.30
2023-04-16T13:39:38.875Z,5.83
2023-04-16T13:42:06.651Z,14.47
2023-04-16T13:44:34.208Z,9.23
2023-04-16T13:47:01.721Z,8.77
2023-04-16T13:49:29.500Z,10.97
2023-04-16T13:51:56.753Z,9.63
2023-04-16T13:54:23.911Z,6.10
2023-04-16T13:56:51.662Z,8.80
2023-04-16T13:59:19.385Z,6.33
2023-04-16T14:01:47.025Z,4.70
2023-04-16T14:04:14.513Z,8.60
2023-04-16T14:06:41.938Z,7.87
2023-04-16T14:09:11.158Z,9.87
2023-04-16T14:11:38.590Z,10.37
2023-04-16T14:14:05.904Z,4.63
2023-04-16T14:16:33.469Z,8.23
2023-04-16T14:19:00.981Z,10.03
2023-04-16T14:21:28.460Z,3.83
2023-04-16T14:23:55.936Z,4.97
2023-04-16T14:26:23.638Z,6.43
2023-04-16T14:28:51.284Z,5.80
2023-04-16T14:31:20.141Z,8.90
2023-04-16T14:33:47.718Z,16.37
2023-04-16T14:36:15.101Z,11.13
2023-04-16T14:38:43.686Z,7.80
2023-04-16T14:41:12.709Z,8.47
2023-04-16T14:43:44.699Z,5.73
2023-04-16T14:46:12.262Z,11.40
2023-04-16T14:48:39.659Z,3.33
2023-04-16T14:51:07.582Z,5.20
2023-04-16T14:53:36.801Z,12.57
2023-04-16T14:56:05.174Z,7.40
2023-04-16T14:58:33.312Z,4.40
2023-04-16T15:01:00.654Z,2.80
2023-04-16T15:03:28.310Z,3.00
2023-04-16T15:05:56.373Z,7.00
2023-04-16T15:08:24.216Z,3.07
2023-04-16T15:10:51.762Z,3.77
2023-04-16T15:13:19.588Z,4.00
2023-04-16T15:15:47.004Z,3.30
2023-04-16T15:18:14.437Z,5.03
2023-04-16T15:20:42.146Z,3.83
2023-04-16T15:23:09.629Z,3.53
2023-04-16T15:25:37.042Z,6.67
2023-04-16T15:28:04.744Z,11.73
2023-04-16T15:30:32.309Z,11.93
2023-04-16T15:32:59.910Z,3.03
2023-04-16T15:35:27.378Z,8.00
2023-04-16T15:37:55.497Z,11.17
2023-04-16T15:40:22.948Z,5.50
2023-04-16T15:42:50.221Z,3.10
2023-04-16T15:45:17.754Z,4.60
2023-04-16T15:47:48.319Z,4.00
2023-04-16T15:50:15.935Z,3.77
2023-04-16T15:52:43.194Z,4.13
2023-04-16T15:55:10.964Z,8.93
2023-04-16T15:57:38.365Z,4.23
2023-04-16T16:00:17.422Z,4.13
2023-04-16T16:02:45.140Z,6.83
2023-04-16T16:05:15.787Z,6.33
2023-04-16T16:07:43.121Z,4.10
2023-04-16T16:10:11.021Z,5.03
2023-04-16T16:12:38.298Z,4.33
2023-04-16T16:15:06.687Z,5.13
2023-04-16T16:17:34.233Z,4.40
2023-04-16T16:20:02.008Z,4.13
2023-04-16T16:22:30.187Z,4.70
2023-04-16T16:24:58.298Z,2.87
2023-04-16T16:27:25.833Z,5.53
2023-04-16T16:30:11.395Z,4.67
2023-04-16T16:32:41.394Z,5.20
2023-04-16T16:35:09.475Z,5.60
2023-04-16T16:37:37.087Z,3.13
2023-04-16T16:40:04.458Z,4.67
2023-04-16T16:42:32.050Z,5.40
2023-04-16T16:44:59.449Z,6.27
2023-04-16T16:47:27.236Z,8.67
2023-04-16T16:49:58.188Z,8.23
2023-04-16T16:52:26.589Z,6.03
2023-04-16T16:54:54.388Z,5.97
2023-04-16T16:57:22.090Z,10.97
2023-04-16T16:59:50.708Z,5.93
2023-04-16T17:02:18.999Z,8.63
2023-04-16T17:04:46.574Z,9.90
2023-04-16T17:07:16.249Z,5.23
2023-04-16T17:09:44.020Z,8.57
2023-04-16T17:12:11.642Z,6.90
2023-04-16T17:14:39.508Z,10.03
2023-04-16T17:17:06.884Z,22.63
2023-04-16T17:19:34.240Z,50.07
2023-04-16T17:22:05.431Z,35.50
2023-04-16T17:24:32.706Z,26.63
2023-04-16T17:27:00.061Z,33.37
2023-04-16T17:29:27.502Z,25.57
2023-04-16T17:31:55.154Z,10.00
2023-04-16T17:34:23.100Z,6.27
2023-04-16T17:36:53.928Z,5.70
2023-04-16T17:39:23.088Z,8.10
2023-04-16T17:41:54.634Z,4.13
2023-04-16T17:44:23.350Z,5.10
2023-04-16T17:46:50.813Z,12.43
2023-04-16T17:49:18.142Z,7.00
2023-04-16T17:51:45.928Z,6.17
2023-04-16T17:54:13.358Z,5.80
2023-04-16T17:56:41.096Z,4.60
2023-04-16T17:59:08.576Z,4.40
2023-04-16T18:01:35.989Z,4.50
2023-04-16T18:04:03.861Z,6.30
2023-04-16T18:06:31.860Z,4.60
2023-04-16T18:08:59.200Z,7.17
2023-04-16T18:11:28.433Z,5.10
2023-04-16T18:13:57.448Z,7.03
2023-04-16T18:16:25.486Z,4.80
2023-04-16T18:18:52.985Z,6.87
2023-04-16T18:21:20.577Z,5.97
2023-04-16T18:23:47.959Z,6.80
2023-04-16T18:26:18.561Z,4.00
2023-04-16T18:28:47.899Z,4.37
2023-04-16T18:31:15.914Z,4.70
2023-04-16T18:36:13.700Z,4.87
2023-04-16T18:38:52.887Z,5.20
2023-04-16T18:41:24.699Z,6.13
2023-04-16T18:43:52.092Z,5.30
2023-04-16T18:46:19.492Z,6.37
2023-04-16T18:48:46.943Z,5.97
2023-04-16T18:51:16.092Z,6.13
2023-04-16T18:53:45.876Z,6.33
2023-04-16T18:56:13.327Z,5.30
2023-04-16T18:58:40.797Z,5.27
2023-04-16T19:01:11.399Z,4.97
2023-04-16T19:03:39.276Z,5.17
2023-04-16T19:06:07.008Z,4.90
2023-04-16T19:08:34.399Z,6.40
2023-04-16T19:11:01.884Z,5.50
2023-04-16T19:13:30.700Z,5.23
2023-04-16T19:15:59.831Z,11.97
2023-04-16T19:18:27.914Z,8.23
2023-04-16T19:21:01.832Z,7.50
2023-04-16T19:23:29.435Z,7.23
2023-04-16T19:25:57.359Z,10.63
2023-04-16T19:28:25.140Z,6.87
2023-04-16T19:30:53.236Z,10.67
2023-04-16T19:33:20.523Z,8.30
2023-04-16T19:35:48.005Z,11.17
2023-04-16T19:38:15.342Z,7.17
2023-04-16T19:40:46.900Z,7.57
2023-04-16T19:43:14.538Z,7.70
2023-04-16T19:45:45.527Z,15.80
2023-04-16T19:48:12.891Z,10.80
2023-04-16T19:50:41.520Z,14.27
2023-04-16T19:53:09.366Z,13.23
2023-04-16T19:55:36.967Z,20.97
2023-04-16T19:58:07.338Z,15.23
2023-04-16T20:00:36.220Z,18.90
2023-04-16T20:03:03.938Z,28.60
2023-04-16T20:05:31.267Z,27.40
2023-04-16T20:07:58.714Z,28.93
2023-04-16T20:10:26.708Z,15.70
2023-04-16T20:12:53.888Z,19.87
2023-04-16T20:15:21.260Z,16.53
2023-04-16T20:17:48.727Z,40.87
2023-04-16T20:20:16.790Z,38.30
2023-04-16T20:22:44.313Z,39.00
2023-04-16T20:25:12.177Z,39.37
2023-04-16T20:27:39.555Z,35.00
2023-04-16T20:30:07.492Z,6.97
2023-04-16T20:32:34.880Z,3.83
2023-04-16T20:35:02.353Z,3.67
2023-04-16T20:37:29.942Z,7.23
2023-04-16T20:39:57.120Z,4.17
2023-04-16T20:42:26.563Z,9.57
2023-04-16T20:44:56.789Z,4.00
2023-04-16T20:47:24.103Z,4.00
2023-04-16T20:49:53.114Z,3.30
2023-04-16T20:52:20.869Z,3.03
2023-04-16T20:54:48.540Z,3.13
2023-04-16T20:57:16.155Z,3.10
2023-04-16T20:59:43.404Z,3.20
2023-04-16T21:02:10.806Z,5.27
2023-04-16T21:04:38.303Z,3.73
2023-04-16T21:07:05.745Z,4.30
2023-04-16T21:09:33.103Z,3.17
2023-04-16T21:12:01.849Z,15.63
2023-04-16T21:14:29.305Z,10.37
2023-04-16T21:16:56.668Z,23.87
2023-04-16T21:19:24.175Z,11.13
2023-04-16T21:21:51.860Z,5.37
2023-04-16T21:24:19.313Z,4.40
2023-04-16T21:26:46.711Z,3.13
2023-04-16T21:29:14.207Z,3.60
2023-04-16T21:31:41.766Z,3.47
2023-04-16T21:34:09.336Z,4.57
2023-04-16T21:36:36.789Z,6.10
2023-04-16T21:39:04.225Z,9.93
2023-04-16T21:41:31.581Z,11.07
2023-04-16T21:43:58.720Z,6.50
2023-04-16T21:46:26.933Z,3.70
2023-04-16T21:48:54.640Z,3.00
2023-04-16T21:51:30.001Z,2.93
2023-04-16T21:53:57.535Z,4.67
2023-04-16T21:56:25.347Z,4.03
2023-04-16T21:58:53.017Z,3.20
2023-04-16T22:01:20.538Z,5.37
2023-04-16T22:03:50.949Z,5.70
2023-04-16T22:06:18.676Z,9.40
2023-04-16T22:08:45.816Z,5.87
2023-04-16T22:11:13.182Z,5.67
2023-04-16T22:13:42.519Z,4.97
2023-04-16T22:16:11.758Z,6.17
2023-04-16T22:18:41.314Z,4.80
2023-04-16T22:21:08.744Z,3.23
2023-04-16T22:23:36.379Z,8.07
2023-04-16T22:26:04.395Z,4.80
2023-04-16T22:28:32.002Z,6.10
2023-04-16T22:30:59.350Z,4.37
2023-04-16T22:33:29.745Z,4.03
2023-04-16T22:35:57.033Z,5.63
2023-04-16T22:38:24.279Z,5.00
2023-04-16T22:40:51.511Z,5.33
2023-04-16T22:43:18.953Z,5.03
2023-04-16T22:45:49.227Z,6.80
2023-04-16T22:48:16.621Z,8.33
2023-04-16T22:50:51.341Z,7.47
2023-04-16T22:53:18.600Z,6.30
2023-04-16T22:55:46.167Z,7.40
2023-04-16T22:58:13.463Z,7.10
2023-04-16T23:00:40.583Z,7.80
2023-04-16T23:03:08.397Z,5.00
2023-04-16T23:05:36.199Z,3.90
2023-04-16T23:08:03.776Z,4.60
2023-04-16T23:10:31.075Z,4.07
2023-04-16T23:12:58.463Z,4.07
2023-04-16T23:15:26.213Z,3.83
2023-04-16T23:17:53.433Z,4.53
2023-04-16T23:20:20.981Z,3.80
2023-04-16T23:22:48.145Z,3.73
2023-04-16T23:25:15.830Z,4.30
2023-04-16T23:27:43.016Z,3.80
2023-04-16T23:30:10.762Z,3.30
2023-04-16T23:32:38.283Z,3.50
2023-04-16T23:35:06.471Z,5.83
2023-04-16T23:37:34.027Z,3.90
2023-04-16T23:40:01.233Z,4.67
2023-04-16T23:42:28.896Z,3.03
2023-04-16T23:44:56.482Z,3.50
2023-04-16T23:47:24.037Z,3.20
2023-04-16T23:49:51.583Z,4.30
2023-04-16T23:52:18.966Z,4.53
2023-04-16T23:54:46.636Z,3.80
2023-04-16T23:57:14.395Z,3.80
2023-04-16T23:59:41.838Z,3.07
